Columbia Regional Airport
KCOU : now visible

Airfield :











YOU CAN JOIN US ON...

 
LOGIN :

Register | Disclaimer

   EN    FR    IT 

 









Legend :    VFR   Marginal VFR   IFR   Intensive IFR   Very Intensive IFR
Visi :
Ceiling :
>= 8 km
>= 3000ft
5 to 8 km
1000 to 3000 ft
1500m to 5 km
500 to 1000 ft
800 to 1500m
200 to 500 ft
< 800m
< 200 ft
Symbols :   Thunderstorms  Fog  Heavy snow  Heavy precipitations  Wind > 20 kt






- Airport Elevation : 889 ft
- IATA code : COU


KCOU - Columbia Regional

CURRENT METAR :
  • 011454Z 30008KT 10SM CLR 24/20 A3010 RMK AO2 SLP183 T02440200 56001

EXPIRED METARs :
  • 011354Z 30006KT 10SM CLR 22/19 A3010 RMK AO2 SLP184 T02220194
  • 011254Z 27006KT 10SM SCT036 19/18 A3010 RMK AO2 SLP185 T01890178
  • 011154Z 26006KT 7SM CLR 18/17 A3010 RMK AO2 SLP185 70046 T01780172 10189 20167 53009

TAF KCOU
Valid from the 01 at 12:00 until the 02 at 12:00 UTC


011120Z 0112/0212 VRB03KT P6SM SKC
FM011400 33005KT P6SM SCT035
KZKC FIR / North America



MET'MAP, your aeronautical weather chart ! - Copyright ORBIFLY December 2007 - Disclaimer

ORBIFLY MET'MAP TEAM :

Programming & Development : Alexandra Zaïnal
Concept & original design : Baudouin d'Aumeries
Assistance for programming : Marc-Olivier Méhu
Technical & hardware support : Manuel Goepfert

Contact : metmap@orbifly.com




SOURCES & CREDITS :

   NOAA       Earth
Advisory